Airfield :
LOGIN :

Register | Disclaimer

   EN    FR    IT 

 










Legend :    VFR   Marginal VFR   IFR   Intensive IFR   Very Intensive IFR
Visi :
Ceiling :
>= 8 km
>= 3000ft
5 to 8 km
1000 to 3000 ft
1500m to 5 km
500 to 1000 ft
800 to 1500m
200 to 500 ft
< 800m
< 200 ft
Symbols :   Thunderstorms  Fog  Heavy snow  Heavy precipitations  Wind > 20 kt
SIGMETs :     Misc.  Thunderstorms  Icing  Turbulence  Mountain Waves  Volcanic Ashes






- Airport Elevation : 404 ft
- IATA code : WRO


EPWR - Wroclaw

CURRENT METAR :
  • 241400Z 25010KT CAVOK 03/M04 Q1021

EXPIRED METARs :
  • 241330Z 25009KT CAVOK 04/M03 Q1022
  • 241300Z 24008KT 210V280 CAVOK 04/M03 Q1022
  • 241230Z 25007KT 220V290 CAVOK 04/M03 Q1022
  • 241200Z 24006KT 210V270 CAVOK 04/M03 Q1022
  • 241130Z 25006KT 210V280 CAVOK 03/M02 Q1022

TAF TAF EPWR
Valid from the 24 at 12:00 until the 25 at 12:00 UTC


241130Z 2412/2512 28006KT CAVOK
TEMPO 2422/2504 4000 BR
BECMG 2504/2506 BKN014
TEMPO 2504/2509 3000 BR BKN005
BECMG 2509/2512 BKN020



MET'MAP, your aeronautical weather chart ! - Copyright ORBIFLY December 2007 - Disclaimer

ORBIFLY MET'MAP TEAM :

Programming & Development : Alexandra Zaïnal
Concept & original design : Baudouin d'Aumeries
Assistance for programming : Marc-Olivier Méhu
Technical & hardware support : Manuel Goepfert

Contact : metmap@orbifly.com




SOURCES & CREDITS :

   NOAA